createdAt,value
2019-04-26T00:00:19.354Z,21.02
2019-04-26T00:02:53.118Z,21.60
2019-04-26T00:05:33.970Z,21.73
2019-04-26T00:07:57.888Z,21.37
2019-04-26T00:10:33.484Z,19.77
2019-04-26T00:13:09.921Z,21.95
2019-04-26T00:15:54.870Z,21.42
2019-04-26T00:18:26.744Z,19.90
2019-04-26T00:20:59.408Z,21.17
2019-04-26T00:23:30.905Z,20.65
2019-04-26T00:26:01.985Z,20.60
2019-04-26T00:28:32.910Z,20.92
2019-04-26T00:31:03.878Z,20.20
2019-04-26T00:33:36.584Z,21.50
2019-04-26T00:36:07.489Z,21.80
2019-04-26T00:38:38.418Z,21.80
2019-04-26T00:41:09.921Z,22.05
2019-04-26T00:43:41.469Z,22.82
2019-04-26T00:46:14.667Z,22.50
2019-04-26T00:48:46.094Z,21.45
2019-04-26T00:51:17.898Z,22.50
2019-04-26T00:53:49.804Z,21.23
2019-04-26T00:56:22.227Z,21.93
2019-04-26T00:58:53.617Z,22.73
2019-04-26T01:01:26.458Z,22.55
2019-04-26T01:03:57.441Z,23.15
2019-04-26T01:06:29.987Z,23.32
2019-04-26T01:09:00.902Z,22.30
2019-04-26T01:11:31.809Z,21.60
2019-04-26T01:14:02.735Z,22.07
2019-04-26T01:16:34.502Z,21.77
2019-04-26T01:19:09.682Z,22.60
2019-04-26T01:21:43.493Z,22.65
2019-04-26T01:24:18.245Z,22.52
2019-04-26T01:26:51.539Z,22.35
2019-04-26T01:29:23.744Z,22.02
2019-04-26T01:32:09.533Z,22.05
2019-04-26T01:34:42.236Z,20.88
2019-04-26T01:37:13.644Z,22.73
2019-04-26T01:39:49.126Z,22.55
2019-04-26T01:42:30.723Z,22.22
2019-04-26T01:45:21.769Z,23.42
2019-04-26T01:47:55.623Z,22.98
2019-04-26T01:50:29.424Z,23.00
2019-04-26T01:53:02.478Z,22.45
2019-04-26T01:55:33.625Z,22.82
2019-04-26T01:58:06.402Z,23.00
2019-04-26T02:00:48.049Z,24.02
2019-04-26T02:03:26.360Z,24.15
2019-04-26T02:05:57.500Z,23.12
2019-04-26T02:08:28.399Z,23.92
2019-04-26T02:11:00.184Z,22.55
2019-04-26T02:13:31.093Z,22.73
2019-04-26T02:16:02.023Z,21.95
2019-04-26T02:18:33.606Z,21.97
2019-04-26T02:21:22.080Z,21.85
2019-04-26T02:24:04.822Z,23.32
2019-04-26T02:26:43.156Z,23.18
2019-04-26T02:29:17.047Z,22.67
2019-04-26T02:31:53.552Z,22.48
2019-04-26T02:34:26.072Z,22.90
2019-04-26T02:37:01.344Z,23.77
2019-04-26T02:39:37.800Z,22.20
2019-04-26T02:42:28.757Z,22.55
2019-04-26T02:45:22.228Z,22.73
2019-04-26T02:48:14.294Z,22.70
2019-04-26T02:50:49.738Z,22.27
2019-04-26T02:53:33.684Z,22.80
2019-04-26T02:56:29.532Z,22.93
2019-04-26T02:59:03.150Z,21.68
2019-04-26T03:01:36.264Z,21.73
2019-04-26T03:04:06.784Z,21.70
2019-04-26T03:06:41.142Z,21.62
2019-04-26T03:09:16.547Z,22.22
2019-04-26T03:11:56.315Z,22.17
2019-04-26T03:14:29.073Z,22.58
2019-04-26T03:17:16.354Z,21.33
2019-04-26T03:20:03.413Z,21.95
2019-04-26T03:22:46.284Z,22.27
2019-04-26T03:25:23.876Z,23.42
2019-04-26T03:28:22.028Z,21.77
2019-04-26T03:31:12.146Z,23.47
2019-04-26T03:34:02.572Z,23.38
2019-04-26T03:37:00.695Z,23.77
2019-04-26T03:39:51.057Z,23.32
2019-04-26T03:42:27.661Z,23.47
2019-04-26T03:45:18.124Z,22.87
2019-04-26T03:48:00.707Z,23.20
2019-04-26T03:50:44.884Z,23.00
2019-04-26T03:53:30.391Z,22.87
2019-04-26T03:56:20.705Z,23.30
2019-04-26T03:59:09.050Z,23.80
2019-04-26T04:01:59.421Z,22.70
2019-04-26T04:04:36.956Z,23.22
2019-04-26T04:07:10.405Z,23.12
2019-04-26T04:09:44.869Z,23.20
2019-04-26T04:12:24.595Z,21.35
2019-04-26T04:15:07.654Z,21.23
2019-04-26T04:17:45.469Z,24.65
2019-04-26T04:20:35.156Z,25.17
2019-04-26T04:23:08.971Z,27.05
2019-04-26T04:25:49.198Z,26.35
2019-04-26T04:28:53.019Z,25.05
2019-04-26T04:31:40.520Z,24.82
2019-04-26T04:34:30.364Z,25.00
2019-04-26T04:37:04.220Z,23.90
2019-04-26T04:40:04.873Z,24.87
2019-04-26T04:42:52.464Z,23.38
2019-04-26T04:45:46.277Z,22.55
2019-04-26T04:48:24.685Z,22.50
2019-04-26T04:51:34.863Z,22.80
2019-04-26T04:54:23.766Z,22.20
2019-04-26T04:56:57.648Z,23.30
2019-04-26T04:59:52.431Z,22.87
2019-04-26T05:02:33.737Z,22.45
2019-04-26T05:05:12.146Z,24.40
2019-04-26T05:08:07.224Z,24.57
2019-04-26T05:10:54.122Z,23.77
2019-04-26T05:13:47.933Z,24.25
2019-04-26T05:16:41.417Z,23.87
2019-04-26T05:19:32.507Z,22.90
2019-04-26T05:22:25.502Z,22.45
2019-04-26T05:25:49.354Z,23.47
2019-04-26T05:28:30.656Z,23.55
2019-04-26T05:31:30.063Z,23.25
2019-04-26T05:34:17.663Z,25.15
2019-04-26T05:37:00.487Z,23.20
2019-04-26T05:39:40.571Z,20.88
2019-04-26T05:42:16.020Z,22.85
2019-04-26T05:45:21.740Z,21.55
2019-04-26T05:48:31.961Z,21.82
2019-04-26T05:51:33.449Z,21.10
2019-04-26T05:54:42.178Z,20.08
2019-04-26T05:57:39.946Z,21.62
2019-04-26T06:00:27.426Z,22.17
2019-04-26T06:03:20.806Z,22.62
2019-04-26T06:05:56.503Z,24.82
2019-04-26T06:08:40.753Z,24.65
2019-04-26T06:11:18.934Z,24.18
2019-04-26T06:14:04.148Z,23.83
2019-04-26T06:17:15.033Z,24.45
2019-04-26T06:19:59.791Z,24.25
2019-04-26T06:22:36.427Z,24.20
2019-04-26T06:25:33.666Z,22.82
2019-04-26T06:28:10.196Z,23.20
2019-04-26T06:30:47.577Z,23.02
2019-04-26T06:33:24.120Z,24.57
2019-04-26T06:35:59.343Z,22.00
2019-04-26T06:38:59.880Z,22.40
2019-04-26T06:42:09.494Z,24.32
2019-04-26T06:45:30.078Z,22.58
2019-04-26T06:48:12.345Z,21.75
2019-04-26T06:51:02.840Z,21.42
2019-04-26T06:53:48.172Z,21.60
2019-04-26T06:56:38.823Z,22.10
2019-04-26T06:59:17.276Z,23.27
2019-04-26T07:01:51.247Z,19.87
2019-04-26T07:04:31.642Z,19.20
2019-04-26T07:07:25.071Z,17.62
2019-04-26T07:10:02.633Z,19.15
2019-04-26T07:12:52.769Z,18.48
2019-04-26T07:15:41.800Z,17.10
2019-04-26T07:18:32.374Z,16.95
2019-04-26T07:21:17.625Z,16.65
2019-04-26T07:24:26.291Z,15.90
2019-04-26T07:27:19.376Z,15.03
2019-04-26T07:30:12.116Z,14.60
2019-04-26T07:32:49.098Z,15.38
2019-04-26T07:35:25.698Z,15.65
2019-04-26T07:38:09.004Z,16.73
2019-04-26T07:41:34.349Z,14.68
2019-04-26T07:44:21.486Z,15.13
2019-04-26T07:46:55.297Z,15.32
2019-04-26T07:49:35.156Z,14.63
2019-04-26T07:52:17.811Z,15.32
2019-04-26T07:55:20.748Z,15.53
2019-04-26T07:58:19.688Z,13.40
2019-04-26T08:01:04.064Z,13.50
2019-04-26T08:03:44.995Z,13.85
2019-04-26T08:06:21.507Z,13.20
2019-04-26T08:09:00.548Z,13.75
2019-04-26T08:11:50.442Z,13.80
2019-04-26T08:14:24.250Z,13.03
2019-04-26T08:17:15.131Z,11.28
2019-04-26T08:20:12.930Z,10.48
2019-04-26T08:22:47.150Z,11.97
2019-04-26T08:25:21.045Z,13.68
2019-04-26T08:27:56.585Z,12.15
2019-04-26T08:30:30.801Z,12.65
2019-04-26T08:33:07.799Z,12.75
2019-04-26T08:35:40.121Z,11.45
2019-04-26T08:38:19.134Z,11.43
2019-04-26T08:40:45.115Z,11.22
2019-04-26T08:43:22.676Z,10.95
2019-04-26T08:46:03.159Z,11.40
2019-04-26T08:48:50.004Z,10.68
2019-04-26T08:51:25.210Z,12.45
2019-04-26T08:53:58.327Z,10.18
2019-04-26T08:56:35.067Z,12.53
2019-04-26T08:59:12.478Z,11.08
2019-04-26T09:01:47.714Z,13.18
2019-04-26T09:04:22.828Z,9.48
2019-04-26T09:07:03.947Z,9.63
2019-04-26T09:09:37.907Z,8.83
2019-04-26T09:12:23.042Z,8.28
2019-04-26T09:14:51.191Z,9.05
2019-04-26T09:17:22.146Z,8.33
2019-04-26T09:19:53.086Z,8.88
2019-04-26T09:22:31.690Z,9.78
2019-04-26T09:25:04.256Z,9.15
2019-04-26T09:27:36.788Z,9.18
2019-04-26T09:30:16.762Z,12.65
2019-04-26T09:32:49.307Z,11.60
2019-04-26T09:35:20.344Z,11.90
2019-04-26T09:37:51.249Z,13.72
2019-04-26T09:40:22.842Z,13.78
2019-04-26T09:42:55.508Z,10.28
2019-04-26T09:45:28.169Z,11.73
2019-04-26T09:48:03.381Z,11.70
2019-04-26T09:50:38.912Z,13.18
2019-04-26T09:53:09.886Z,10.38
2019-04-26T09:55:40.818Z,15.00
2019-04-26T09:58:11.724Z,10.75
2019-04-26T10:00:48.598Z,10.20
2019-04-26T10:03:17.077Z,7.08
2019-04-26T10:05:47.999Z,12.30
2019-04-26T10:08:30.826Z,12.80
2019-04-26T10:11:02.023Z,12.65
2019-04-26T10:13:37.276Z,12.03
2019-04-26T10:16:12.882Z,12.93
2019-04-26T10:18:45.422Z,12.80
2019-04-26T10:21:16.434Z,10.88
2019-04-26T10:23:47.332Z,11.88
2019-04-26T10:26:18.291Z,13.48
2019-04-26T10:28:50.688Z,12.90
2019-04-26T10:31:22.951Z,10.80
2019-04-26T10:33:53.942Z,12.23
2019-04-26T10:36:26.287Z,12.30
2019-04-26T10:38:58.384Z,12.05
2019-04-26T10:41:29.653Z,14.58
2019-04-26T10:44:00.566Z,13.60
2019-04-26T10:46:31.939Z,13.65
2019-04-26T10:49:09.721Z,15.43
2019-04-26T10:51:41.839Z,12.40
2019-04-26T10:54:12.810Z,11.55
2019-04-26T10:56:54.948Z,13.45
2019-04-26T10:59:35.350Z,12.70
2019-04-26T11:02:10.278Z,12.73
2019-04-26T11:04:42.771Z,13.53
2019-04-26T11:07:14.090Z,11.48
2019-04-26T11:09:44.998Z,12.73
2019-04-26T11:12:16.501Z,12.30
2019-04-26T11:14:47.712Z,10.08
2019-04-26T11:17:19.460Z,13.58
2019-04-26T11:19:50.365Z,12.23
2019-04-26T11:22:29.080Z,14.25
2019-04-26T11:24:54.990Z,12.03
2019-04-26T11:27:26.075Z,14.58
2019-04-26T11:29:59.291Z,11.85
2019-04-26T11:32:36.761Z,12.50
2019-04-26T11:35:06.539Z,13.30
2019-04-26T11:37:37.468Z,11.73
2019-04-26T11:40:10.216Z,15.00
2019-04-26T11:42:45.256Z,14.18
2019-04-26T11:45:15.909Z,11.25
2019-04-26T11:47:55.985Z,13.40
2019-04-26T11:50:20.077Z,11.22
2019-04-26T11:52:51.041Z,12.35
2019-04-26T11:55:25.308Z,13.85
2019-04-26T11:57:54.574Z,10.75
2019-04-26T12:00:36.286Z,13.93
2019-04-26T12:03:08.153Z,12.40
2019-04-26T12:05:43.413Z,13.03
2019-04-26T12:08:15.988Z,12.60
2019-04-26T12:10:46.888Z,12.80
2019-04-26T12:13:21.271Z,13.75
2019-04-26T12:15:50.431Z,12.88
2019-04-26T12:18:21.428Z,11.63
2019-04-26T12:20:52.439Z,12.28
2019-04-26T12:23:23.377Z,12.18
2019-04-26T12:25:54.281Z,10.78
2019-04-26T12:28:25.283Z,12.90
2019-04-26T12:30:58.486Z,11.30
2019-04-26T12:33:30.467Z,13.38
2019-04-26T12:36:01.365Z,12.80
2019-04-26T12:38:32.299Z,12.98
2019-04-26T12:41:03.203Z,9.68
2019-04-26T12:43:34.320Z,11.97
2019-04-26T12:46:09.809Z,14.35
2019-04-26T12:48:40.777Z,12.50
2019-04-26T12:51:13.275Z,12.28
2019-04-26T12:53:44.476Z,12.37
2019-04-26T12:56:15.377Z,12.65
2019-04-26T12:58:50.075Z,12.60
2019-04-26T13:01:19.202Z,13.70
2019-04-26T13:04:02.668Z,11.15
2019-04-26T13:06:36.168Z,14.33
2019-04-26T13:09:10.010Z,12.90
2019-04-26T13:11:48.799Z,14.20
2019-04-26T13:14:33.073Z,13.03
2019-04-26T13:17:05.621Z,13.30
2019-04-26T13:19:37.447Z,15.75
2019-04-26T13:22:12.175Z,15.38
2019-04-26T13:24:41.033Z,15.90
2019-04-26T13:27:12.325Z,12.85
2019-04-26T13:29:43.373Z,17.32
2019-04-26T13:32:14.344Z,19.10
2019-04-26T13:34:45.535Z,18.25
2019-04-26T13:37:16.520Z,16.90
2019-04-26T13:39:47.447Z,17.90
2019-04-26T13:42:18.714Z,12.90
2019-04-26T13:44:57.493Z,14.28
2019-04-26T13:47:30.050Z,15.30
2019-04-26T13:50:12.570Z,14.13
2019-04-26T13:52:43.472Z,13.72
2019-04-26T13:55:14.402Z,14.07
2019-04-26T13:57:46.152Z,15.43
2019-04-26T14:00:18.963Z,16.60
2019-04-26T14:02:49.872Z,13.70
2019-04-26T14:05:21.690Z,14.60
2019-04-26T14:07:52.587Z,16.42
2019-04-26T14:10:23.632Z,15.08
2019-04-26T14:12:54.548Z,15.40
2019-04-26T14:15:25.492Z,14.30
2019-04-26T14:17:56.543Z,16.40
2019-04-26T14:20:30.097Z,14.15
2019-04-26T14:23:02.717Z,15.23
2019-04-26T14:25:47.227Z,17.80
2019-04-26T14:28:20.325Z,13.25
2019-04-26T14:30:50.843Z,14.55
2019-04-26T14:33:21.750Z,14.68
2019-04-26T14:35:53.512Z,14.07
2019-04-26T14:38:28.115Z,13.60
2019-04-26T14:41:04.166Z,13.98
2019-04-26T14:43:40.713Z,12.60
2019-04-26T14:46:02.432Z,12.13
2019-04-26T14:48:36.258Z,13.60
2019-04-26T14:51:08.349Z,12.75
2019-04-26T14:53:39.473Z,12.50
2019-04-26T14:56:10.457Z,11.53
2019-04-26T14:58:42.313Z,13.25
2019-04-26T15:01:32.316Z,13.78
2019-04-26T15:04:07.408Z,12.33
2019-04-26T15:06:42.398Z,10.85
2019-04-26T15:09:19.846Z,10.72
2019-04-26T15:11:56.929Z,13.43
2019-04-26T15:14:20.630Z,12.50
2019-04-26T15:16:51.363Z,11.78
2019-04-26T15:19:22.600Z,11.08
2019-04-26T15:21:55.402Z,13.65
2019-04-26T15:24:26.306Z,14.43
2019-04-26T15:26:58.168Z,12.93
2019-04-26T15:29:29.920Z,11.35
2019-04-26T15:32:00.847Z,11.93
2019-04-26T15:34:33.364Z,11.70
2019-04-26T15:37:05.235Z,12.50
2019-04-26T15:39:37.780Z,11.05
2019-04-26T15:42:25.217Z,12.07
2019-04-26T15:44:57.439Z,11.75
2019-04-26T15:47:36.808Z,12.37
2019-04-26T15:50:10.112Z,11.68
2019-04-26T15:52:43.885Z,10.82
2019-04-26T15:55:14.900Z,10.85
2019-04-26T15:57:45.840Z,11.90
2019-04-26T16:00:16.827Z,11.95
2019-04-26T16:02:47.768Z,12.30
2019-04-26T16:05:18.672Z,11.25
2019-04-26T16:07:50.418Z,11.38
2019-04-26T16:10:25.594Z,13.13
2019-04-26T16:13:01.258Z,10.78
2019-04-26T16:15:29.717Z,11.97
2019-04-26T16:18:03.855Z,12.78
2019-04-26T16:20:37.701Z,11.25
2019-04-26T16:23:07.454Z,12.50
2019-04-26T16:25:39.337Z,12.53
2019-04-26T16:28:30.689Z,13.43
2019-04-26T16:31:11.066Z,12.93
2019-04-26T16:33:43.122Z,11.60
2019-04-26T16:36:15.011Z,11.68
2019-04-26T16:38:48.578Z,11.20
2019-04-26T16:41:21.847Z,10.38
2019-04-26T16:43:53.575Z,9.98
2019-04-26T16:46:25.011Z,10.28
2019-04-26T16:49:02.304Z,11.05
2019-04-26T16:51:28.554Z,11.08
2019-04-26T16:54:08.724Z,10.98
2019-04-26T16:56:36.014Z,9.43
2019-04-26T16:59:06.494Z,9.80
2019-04-26T17:01:38.135Z,11.53
2019-04-26T17:04:11.246Z,11.80
2019-04-26T17:06:44.736Z,11.25
2019-04-26T17:09:17.368Z,11.28
2019-04-26T17:11:48.257Z,12.40
2019-04-26T17:14:19.185Z,11.70
2019-04-26T17:16:50.082Z,11.20
2019-04-26T17:19:22.644Z,11.83
2019-04-26T17:22:03.699Z,12.50
2019-04-26T17:24:38.148Z,13.70
2019-04-26T17:27:12.844Z,13.58
2019-04-26T17:29:43.166Z,12.82
2019-04-26T17:32:17.334Z,14.70
2019-04-26T17:34:46.777Z,13.30
2019-04-26T17:37:21.949Z,13.80
2019-04-26T17:39:55.397Z,13.88
2019-04-26T17:42:29.781Z,14.85
2019-04-26T17:45:03.894Z,16.73
2019-04-26T17:47:34.687Z,15.53
2019-04-26T17:50:06.104Z,16.15
2019-04-26T17:52:37.633Z,17.77
2019-04-26T17:55:11.938Z,14.43
2019-04-26T17:57:48.448Z,14.13
2019-04-26T18:00:21.072Z,19.23
2019-04-26T18:02:50.916Z,16.65
2019-04-26T18:05:24.386Z,16.17
2019-04-26T18:07:58.422Z,17.50
2019-04-26T18:10:28.279Z,16.90
2019-04-26T18:13:00.456Z,14.53
2019-04-26T18:15:33.311Z,18.27
2019-04-26T18:18:23.294Z,19.23
2019-04-26T18:21:03.281Z,21.65
2019-04-26T18:23:34.546Z,19.07
2019-04-26T18:26:06.520Z,19.67
2019-04-26T18:28:37.419Z,18.20
2019-04-26T18:31:10.435Z,23.10
2019-04-26T18:33:42.606Z,16.57
2019-04-26T18:36:13.634Z,16.85
2019-04-26T18:38:48.593Z,15.55
2019-04-26T18:41:23.168Z,16.20
2019-04-26T18:43:54.034Z,16.02
2019-04-26T18:46:31.732Z,14.40
2019-04-26T18:49:01.419Z,18.77
2019-04-26T18:51:33.423Z,19.10
2019-04-26T18:54:09.316Z,19.57
2019-04-26T18:56:41.315Z,18.48
2019-04-26T18:59:15.294Z,20.32
2019-04-26T19:01:45.174Z,20.95
2019-04-26T19:04:16.147Z,20.05
2019-04-26T19:06:47.096Z,20.10
2019-04-26T19:09:21.256Z,20.85
2019-04-26T19:11:55.954Z,19.67
2019-04-26T19:14:27.591Z,21.45
2019-04-26T19:17:01.908Z,22.25
2019-04-26T19:19:34.647Z,26.48
2019-04-26T19:22:09.458Z,28.67
2019-04-26T19:24:39.577Z,29.90
2019-04-26T19:27:12.524Z,28.87
2019-04-26T19:29:43.642Z,31.90
2019-04-26T19:32:14.836Z,32.03
2019-04-26T19:34:45.788Z,30.60
2019-04-26T19:37:16.957Z,28.17
2019-04-26T19:39:51.089Z,27.00
2019-04-26T19:42:30.904Z,27.50
2019-04-26T19:45:13.955Z,33.30
2019-04-26T19:47:45.779Z,27.70
2019-04-26T19:50:26.313Z,27.42
2019-04-26T19:53:05.014Z,25.37
2019-04-26T19:55:37.563Z,28.27
2019-04-26T19:58:16.167Z,24.50
2019-04-26T20:00:46.767Z,25.27
2019-04-26T20:03:16.957Z,26.23
2019-04-26T20:05:48.114Z,32.67
2019-04-26T20:08:19.125Z,39.23
2019-04-26T20:10:50.034Z,36.73
2019-04-26T20:13:22.150Z,36.77
2019-04-26T20:15:57.480Z,37.98
2019-04-26T20:18:25.918Z,36.60
2019-04-26T20:20:56.821Z,37.93
2019-04-26T20:23:27.810Z,38.48
2019-04-26T20:26:02.354Z,36.25
2019-04-26T20:28:34.287Z,34.67
2019-04-26T20:31:09.633Z,34.98
2019-04-26T20:33:42.428Z,35.33
2019-04-26T20:36:13.559Z,35.30
2019-04-26T20:38:47.421Z,33.60
2019-04-26T20:41:17.246Z,33.98
2019-04-26T20:44:03.102Z,32.78
2019-04-26T20:46:25.106Z,33.00
2019-04-26T20:48:56.356Z,32.13
2019-04-26T20:51:27.470Z,35.25
2019-04-26T20:53:58.507Z,35.17
2019-04-26T20:56:29.471Z,34.55
2019-04-26T20:59:01.548Z,42.85
2019-04-26T21:01:32.641Z,42.98
2019-04-26T21:04:03.773Z,41.50
2019-04-26T21:06:36.956Z,36.23
2019-04-26T21:09:09.295Z,37.28
2019-04-26T21:11:41.231Z,33.75
2019-04-26T21:14:12.448Z,35.55
2019-04-26T21:16:49.281Z,33.85
2019-04-26T21:19:18.985Z,33.13
2019-04-26T21:21:50.000Z,36.20
2019-04-26T21:24:23.596Z,35.17
2019-04-26T21:26:59.915Z,36.13
2019-04-26T21:29:43.496Z,38.38
2019-04-26T21:32:24.567Z,38.60
2019-04-26T21:34:56.752Z,39.55
2019-04-26T21:37:29.313Z,41.42
2019-04-26T21:40:22.646Z,41.75
2019-04-26T21:42:49.445Z,44.65
2019-04-26T21:45:21.525Z,43.02
2019-04-26T21:47:54.283Z,42.65
2019-04-26T21:50:25.460Z,39.18
2019-04-26T21:52:58.572Z,38.20
2019-04-26T21:55:35.346Z,36.53
2019-04-26T21:58:02.750Z,35.50
2019-04-26T22:00:49.169Z,31.48
2019-04-26T22:03:20.541Z,27.45
2019-04-26T22:05:51.537Z,28.35
2019-04-26T22:08:24.834Z,29.45
2019-04-26T22:10:56.896Z,27.82
2019-04-26T22:13:33.301Z,27.48
2019-04-26T22:16:34.446Z,26.90
2019-04-26T22:19:14.624Z,24.12
2019-04-26T22:21:47.386Z,24.82
2019-04-26T22:24:29.101Z,26.33
2019-04-26T22:27:00.134Z,24.98
2019-04-26T22:29:31.063Z,27.07
2019-04-26T22:32:03.684Z,27.00
2019-04-26T22:34:37.299Z,26.80
2019-04-26T22:37:11.732Z,26.15
2019-04-26T22:39:41.260Z,27.13
2019-04-26T22:42:13.808Z,25.68
2019-04-26T22:44:49.452Z,26.87
2019-04-26T22:47:23.930Z,27.77
2019-04-26T22:49:54.643Z,28.38
2019-04-26T22:52:25.633Z,25.72
2019-04-26T22:54:56.612Z,25.62
2019-04-26T22:57:28.009Z,25.65
2019-04-26T22:59:58.902Z,26.65
2019-04-26T23:02:30.372Z,25.20
2019-04-26T23:05:02.102Z,25.37
2019-04-26T23:07:33.979Z,26.65
2019-04-26T23:10:07.219Z,24.98
2019-04-26T23:12:45.547Z,26.05
2019-04-26T23:15:34.585Z,25.17
2019-04-26T23:18:08.363Z,24.80
2019-04-26T23:20:42.663Z,25.40
2019-04-26T23:23:14.331Z,24.45
2019-04-26T23:25:45.234Z,26.35
2019-04-26T23:28:16.171Z,25.82
2019-04-26T23:30:47.145Z,25.80
2019-04-26T23:33:18.120Z,24.20
2019-04-26T23:35:49.019Z,24.80
2019-04-26T23:38:19.956Z,24.70
2019-04-26T23:40:50.867Z,23.50
2019-04-26T23:43:25.402Z,24.98
2019-04-26T23:45:54.471Z,24.18
2019-04-26T23:48:26.248Z,23.15
2019-04-26T23:50:59.892Z,24.50
2019-04-26T23:53:29.762Z,24.87
2019-04-26T23:56:00.668Z,24.32
2019-04-26T23:58:32.451Z,24.82
